sensor_id;sensor_type;location;lat;lon;timestamp;P1;durP1;ratioP1;P2;durP2;ratioP2
4232;SDS011;2130;48.472;11.934;2022-10-31T00:00:46;3.00;;;1.60;;
4232;SDS011;2130;48.472;11.934;2022-10-31T00:03:15;2.77;;;1.43;;
4232;SDS011;2130;48.472;11.934;2022-10-31T00:05:43;1.70;;;1.23;;
4232;SDS011;2130;48.472;11.934;2022-10-31T00:08:14;2.30;;;1.70;;
4232;SDS011;2130;48.472;11.934;2022-10-31T00:10:43;4.30;;;1.60;;
4232;SDS011;2130;48.472;11.934;2022-10-31T00:13:12;1.50;;;1.40;;
4232;SDS011;2130;48.472;11.934;2022-10-31T00:15:41;1.33;;;1.20;;
4232;SDS011;2130;48.472;11.934;2022-10-31T00:18:09;1.97;;;1.63;;
4232;SDS011;2130;48.472;11.934;2022-10-31T00:20:38;1.40;;;1.30;;
4232;SDS011;2130;48.472;11.934;2022-10-31T00:23:06;1.70;;;1.43;;
4232;SDS011;2130;48.472;11.934;2022-10-31T00:25:36;1.93;;;1.20;;
4232;SDS011;2130;48.472;11.934;2022-10-31T00:28:06;2.80;;;1.60;;
4232;SDS011;2130;48.472;11.934;2022-10-31T00:30:35;1.30;;;1.20;;
4232;SDS011;2130;48.472;11.934;2022-10-31T00:33:03;1.60;;;1.30;;
4232;SDS011;2130;48.472;11.934;2022-10-31T00:35:31;2.00;;;1.37;;
4232;SDS011;2130;48.472;11.934;2022-10-31T00:38:00;1.60;;;1.30;;
4232;SDS011;2130;48.472;11.934;2022-10-31T00:40:28;1.77;;;1.30;;
4232;SDS011;2130;48.472;11.934;2022-10-31T00:42:57;2.30;;;1.47;;
4232;SDS011;2130;48.472;11.934;2022-10-31T00:45:26;1.13;;;1.03;;
4232;SDS011;2130;48.472;11.934;2022-10-31T00:47:53;1.23;;;1.10;;
4232;SDS011;2130;48.472;11.934;2022-10-31T00:50:22;1.93;;;1.47;;
4232;SDS011;2130;48.472;11.934;2022-10-31T00:52:50;1.30;;;1.13;;
4232;SDS011;2130;48.472;11.934;2022-10-31T00:55:18;1.17;;;1.07;;
4232;SDS011;2130;48.472;11.934;2022-10-31T00:57:46;1.60;;;1.50;;
4232;SDS011;2130;48.472;11.934;2022-10-31T01:00:16;1.43;;;1.27;;
4232;SDS011;2130;48.472;11.934;2022-10-31T01:02:45;1.30;;;1.20;;
4232;SDS011;2130;48.472;11.934;2022-10-31T01:05:13;1.57;;;1.47;;
4232;SDS011;2130;48.472;11.934;2022-10-31T01:07:43;1.40;;;1.30;;
4232;SDS011;2130;48.472;11.934;2022-10-31T01:10:11;1.30;;;1.20;;
4232;SDS011;2130;48.472;11.934;2022-10-31T01:12:40;1.30;;;1.20;;
4232;SDS011;2130;48.472;11.934;2022-10-31T01:15:09;1.43;;;1.33;;
4232;SDS011;2130;48.472;11.934;2022-10-31T01:17:40;1.40;;;1.30;;
4232;SDS011;2130;48.472;11.934;2022-10-31T01:20:10;1.30;;;1.10;;
4232;SDS011;2130;48.472;11.934;2022-10-31T01:22:40;1.73;;;1.40;;
4232;SDS011;2130;48.472;11.934;2022-10-31T01:25:08;1.93;;;1.30;;
4232;SDS011;2130;48.472;11.934;2022-10-31T01:27:37;1.73;;;1.50;;
4232;SDS011;2130;48.472;11.934;2022-10-31T01:30:06;1.83;;;1.73;;
4232;SDS011;2130;48.472;11.934;2022-10-31T01:32:35;1.83;;;1.60;;
4232;SDS011;2130;48.472;11.934;2022-10-31T01:35:04;1.50;;;1.40;;
4232;SDS011;2130;48.472;11.934;2022-10-31T01:37:33;1.60;;;1.50;;
4232;SDS011;2130;48.472;11.934;2022-10-31T01:40:01;1.87;;;1.53;;
4232;SDS011;2130;48.472;11.934;2022-10-31T01:42:29;1.87;;;1.30;;
4232;SDS011;2130;48.472;11.934;2022-10-31T01:44:58;1.67;;;1.47;;
4232;SDS011;2130;48.472;11.934;2022-10-31T01:47:30;1.53;;;1.30;;
4232;SDS011;2130;48.472;11.934;2022-10-31T01:50:03;1.60;;;1.50;;
4232;SDS011;2130;48.472;11.934;2022-10-31T01:52:35;2.97;;;1.50;;
4232;SDS011;2130;48.472;11.934;2022-10-31T01:55:09;1.63;;;1.40;;
4232;SDS011;2130;48.472;11.934;2022-10-31T01:57:40;1.80;;;1.40;;
4232;SDS011;2130;48.472;11.934;2022-10-31T02:00:09;1.40;;;1.20;;
4232;SDS011;2130;48.472;11.934;2022-10-31T02:02:39;1.13;;;0.90;;
4232;SDS011;2130;48.472;11.934;2022-10-31T02:05:10;1.53;;;1.37;;
4232;SDS011;2130;48.472;11.934;2022-10-31T02:07:42;1.20;;;1.10;;
4232;SDS011;2130;48.472;11.934;2022-10-31T02:10:12;1.37;;;1.27;;
4232;SDS011;2130;48.472;11.934;2022-10-31T02:12:40;1.33;;;1.23;;
4232;SDS011;2130;48.472;11.934;2022-10-31T02:15:09;1.33;;;1.20;;
4232;SDS011;2130;48.472;11.934;2022-10-31T02:17:39;1.70;;;1.60;;
4232;SDS011;2130;48.472;11.934;2022-10-31T02:20:11;1.33;;;1.23;;
4232;SDS011;2130;48.472;11.934;2022-10-31T02:22:49;1.77;;;1.60;;
4232;SDS011;2130;48.472;11.934;2022-10-31T02:25:41;1.80;;;1.30;;
4232;SDS011;2130;48.472;11.934;2022-10-31T02:28:25;1.53;;;1.43;;
4232;SDS011;2130;48.472;11.934;2022-10-31T02:31:07;2.50;;;1.20;;
4232;SDS011;2130;48.472;11.934;2022-10-31T02:33:45;1.10;;;1.00;;
4232;SDS011;2130;48.472;11.934;2022-10-31T02:39:15;1.87;;;1.47;;
4232;SDS011;2130;48.472;11.934;2022-10-31T02:41:48;1.73;;;1.47;;
4232;SDS011;2130;48.472;11.934;2022-10-31T02:44:26;2.07;;;1.40;;
4232;SDS011;2130;48.472;11.934;2022-10-31T02:46:59;1.70;;;1.30;;
4232;SDS011;2130;48.472;11.934;2022-10-31T02:49:30;1.50;;;1.20;;
4232;SDS011;2130;48.472;11.934;2022-10-31T02:52:01;1.20;;;1.10;;
4232;SDS011;2130;48.472;11.934;2022-10-31T02:54:30;2.13;;;1.70;;
4232;SDS011;2130;48.472;11.934;2022-10-31T02:56:59;1.73;;;1.53;;
4232;SDS011;2130;48.472;11.934;2022-10-31T02:59:30;1.97;;;1.37;;
4232;SDS011;2130;48.472;11.934;2022-10-31T03:05:02;2.90;;;1.47;;
4232;SDS011;2130;48.472;11.934;2022-10-31T03:07:53;1.40;;;1.30;;
4232;SDS011;2130;48.472;11.934;2022-10-31T03:10:27;1.97;;;1.30;;
4232;SDS011;2130;48.472;11.934;2022-10-31T03:13:00;1.97;;;1.40;;
4232;SDS011;2130;48.472;11.934;2022-10-31T03:15:32;1.47;;;1.37;;
4232;SDS011;2130;48.472;11.934;2022-10-31T03:18:03;1.80;;;1.30;;
4232;SDS011;2130;48.472;11.934;2022-10-31T03:20:34;3.67;;;1.57;;
4232;SDS011;2130;48.472;11.934;2022-10-31T03:23:06;1.80;;;1.47;;
4232;SDS011;2130;48.472;11.934;2022-10-31T03:25:38;1.73;;;1.47;;
4232;SDS011;2130;48.472;11.934;2022-10-31T03:28:07;1.60;;;1.50;;
4232;SDS011;2130;48.472;11.934;2022-10-31T03:30:38;1.60;;;1.50;;
4232;SDS011;2130;48.472;11.934;2022-10-31T03:33:10;1.97;;;1.40;;
4232;SDS011;2130;48.472;11.934;2022-10-31T03:35:41;2.13;;;1.40;;
4232;SDS011;2130;48.472;11.934;2022-10-31T03:38:10;1.37;;;1.27;;
4232;SDS011;2130;48.472;11.934;2022-10-31T03:40:39;1.27;;;1.17;;
4232;SDS011;2130;48.472;11.934;2022-10-31T03:43:10;1.67;;;1.20;;
4232;SDS011;2130;48.472;11.934;2022-10-31T03:45:43;1.10;;;1.00;;
4232;SDS011;2130;48.472;11.934;2022-10-31T03:48:14;2.70;;;1.50;;
4232;SDS011;2130;48.472;11.934;2022-10-31T03:50:45;1.27;;;1.17;;
4232;SDS011;2130;48.472;11.934;2022-10-31T03:53:19;2.23;;;1.50;;
4232;SDS011;2130;48.472;11.934;2022-10-31T03:55:51;1.73;;;1.43;;
4232;SDS011;2130;48.472;11.934;2022-10-31T03:58:21;2.20;;;1.60;;
4232;SDS011;2130;48.472;11.934;2022-10-31T04:00:53;1.60;;;1.50;;
4232;SDS011;2130;48.472;11.934;2022-10-31T04:03:24;1.27;;;1.17;;
4232;SDS011;2130;48.472;11.934;2022-10-31T04:05:56;2.13;;;1.60;;
4232;SDS011;2130;48.472;11.934;2022-10-31T04:08:31;1.27;;;1.17;;
4232;SDS011;2130;48.472;11.934;2022-10-31T04:11:02;1.80;;;1.50;;
4232;SDS011;2130;48.472;11.934;2022-10-31T04:13:31;2.70;;;1.43;;
4232;SDS011;2130;48.472;11.934;2022-10-31T04:16:07;1.37;;;1.27;;
4232;SDS011;2130;48.472;11.934;2022-10-31T04:18:43;1.43;;;1.33;;
4232;SDS011;2130;48.472;11.934;2022-10-31T04:21:11;1.60;;;1.50;;
4232;SDS011;2130;48.472;11.934;2022-10-31T04:23:39;3.13;;;1.47;;
4232;SDS011;2130;48.472;11.934;2022-10-31T04:26:14;1.47;;;1.33;;
4232;SDS011;2130;48.472;11.934;2022-10-31T04:28:43;1.30;;;1.20;;
4232;SDS011;2130;48.472;11.934;2022-10-31T04:31:14;1.33;;;1.23;;
4232;SDS011;2130;48.472;11.934;2022-10-31T04:33:45;1.30;;;1.10;;
4232;SDS011;2130;48.472;11.934;2022-10-31T04:36:13;1.73;;;1.50;;
4232;SDS011;2130;48.472;11.934;2022-10-31T04:38:42;2.00;;;1.60;;
4232;SDS011;2130;48.472;11.934;2022-10-31T04:41:23;1.80;;;1.30;;
4232;SDS011;2130;48.472;11.934;2022-10-31T04:44:00;1.30;;;1.20;;
4232;SDS011;2130;48.472;11.934;2022-10-31T04:46:28;2.00;;;1.30;;
4232;SDS011;2130;48.472;11.934;2022-10-31T04:48:58;1.93;;;1.10;;
4232;SDS011;2130;48.472;11.934;2022-10-31T04:51:27;1.20;;;1.10;;
4232;SDS011;2130;48.472;11.934;2022-10-31T04:53:55;1.37;;;1.10;;
4232;SDS011;2130;48.472;11.934;2022-10-31T04:56:26;1.70;;;1.60;;
4232;SDS011;2130;48.472;11.934;2022-10-31T04:58:59;1.37;;;1.20;;
4232;SDS011;2130;48.472;11.934;2022-10-31T05:01:37;1.63;;;1.10;;
4232;SDS011;2130;48.472;11.934;2022-10-31T05:04:06;1.60;;;1.50;;
4232;SDS011;2130;48.472;11.934;2022-10-31T05:06:35;1.10;;;1.00;;
4232;SDS011;2130;48.472;11.934;2022-10-31T05:09:03;1.60;;;1.50;;
4232;SDS011;2130;48.472;11.934;2022-10-31T05:11:31;1.40;;;1.23;;
4232;SDS011;2130;48.472;11.934;2022-10-31T05:14:12;2.80;;;1.43;;
4232;SDS011;2130;48.472;11.934;2022-10-31T05:17:18;1.57;;;1.13;;
4232;SDS011;2130;48.472;11.934;2022-10-31T05:20:17;1.23;;;1.13;;
4232;SDS011;2130;48.472;11.934;2022-10-31T05:23:05;1.73;;;1.40;;
4232;SDS011;2130;48.472;11.934;2022-10-31T05:25:33;1.30;;;1.20;;
4232;SDS011;2130;48.472;11.934;2022-10-31T05:28:03;1.60;;;1.50;;
4232;SDS011;2130;48.472;11.934;2022-10-31T05:30:32;1.03;;;1.03;;
4232;SDS011;2130;48.472;11.934;2022-10-31T05:33:02;1.90;;;1.30;;
4232;SDS011;2130;48.472;11.934;2022-10-31T05:35:50;1.27;;;1.17;;
4232;SDS011;2130;48.472;11.934;2022-10-31T05:38:24;1.37;;;1.27;;
4232;SDS011;2130;48.472;11.934;2022-10-31T05:40:54;1.40;;;1.30;;
4232;SDS011;2130;48.472;11.934;2022-10-31T05:43:24;1.50;;;1.40;;
4232;SDS011;2130;48.472;11.934;2022-10-31T05:45:53;7.63;;;1.20;;
4232;SDS011;2130;48.472;11.934;2022-10-31T05:48:41;1.60;;;1.47;;
4232;SDS011;2130;48.472;11.934;2022-10-31T05:51:33;1.50;;;1.40;;
4232;SDS011;2130;48.472;11.934;2022-10-31T05:54:02;2.00;;;1.77;;
4232;SDS011;2130;48.472;11.934;2022-10-31T05:56:30;1.53;;;1.43;;
4232;SDS011;2130;48.472;11.934;2022-10-31T05:58:59;1.43;;;1.33;;
4232;SDS011;2130;48.472;11.934;2022-10-31T06:01:27;1.60;;;1.30;;
4232;SDS011;2130;48.472;11.934;2022-10-31T06:03:58;1.40;;;1.30;;
4232;SDS011;2130;48.472;11.934;2022-10-31T06:06:26;3.23;;;1.57;;
4232;SDS011;2130;48.472;11.934;2022-10-31T06:08:56;1.50;;;1.40;;
4232;SDS011;2130;48.472;11.934;2022-10-31T06:11:25;1.37;;;1.23;;
4232;SDS011;2130;48.472;11.934;2022-10-31T06:14:02;1.40;;;1.30;;
4232;SDS011;2130;48.472;11.934;2022-10-31T06:16:41;2.00;;;1.40;;
4232;SDS011;2130;48.472;11.934;2022-10-31T06:19:29;1.30;;;1.20;;
4232;SDS011;2130;48.472;11.934;2022-10-31T06:21:58;1.63;;;1.40;;
4232;SDS011;2130;48.472;11.934;2022-10-31T06:24:29;2.33;;;1.33;;
4232;SDS011;2130;48.472;11.934;2022-10-31T06:27:20;1.60;;;1.27;;
4232;SDS011;2130;48.472;11.934;2022-10-31T06:29:48;1.33;;;1.23;;
4232;SDS011;2130;48.472;11.934;2022-10-31T06:32:30;2.13;;;1.40;;
4232;SDS011;2130;48.472;11.934;2022-10-31T06:34:58;1.50;;;1.40;;
4232;SDS011;2130;48.472;11.934;2022-10-31T06:37:26;2.20;;;1.53;;
4232;SDS011;2130;48.472;11.934;2022-10-31T06:40:03;1.30;;;1.20;;
4232;SDS011;2130;48.472;11.934;2022-10-31T06:42:44;2.30;;;1.50;;
4232;SDS011;2130;48.472;11.934;2022-10-31T06:45:13;3.73;;;1.83;;
4232;SDS011;2130;48.472;11.934;2022-10-31T06:48:01;2.07;;;1.60;;
4232;SDS011;2130;48.472;11.934;2022-10-31T06:51:02;1.43;;;1.33;;
4232;SDS011;2130;48.472;11.934;2022-10-31T06:53:31;1.10;;;1.00;;
4232;SDS011;2130;48.472;11.934;2022-10-31T06:56:01;2.20;;;1.50;;
4232;SDS011;2130;48.472;11.934;2022-10-31T06:58:34;2.13;;;1.47;;
4232;SDS011;2130;48.472;11.934;2022-10-31T07:01:08;1.50;;;1.40;;
4232;SDS011;2130;48.472;11.934;2022-10-31T07:03:36;1.50;;;1.37;;
4232;SDS011;2130;48.472;11.934;2022-10-31T07:06:04;2.17;;;1.50;;
4232;SDS011;2130;48.472;11.934;2022-10-31T07:08:32;1.30;;;1.20;;
4232;SDS011;2130;48.472;11.934;2022-10-31T07:11:02;1.70;;;1.60;;
4232;SDS011;2130;48.472;11.934;2022-10-31T07:13:30;1.50;;;1.40;;
4232;SDS011;2130;48.472;11.934;2022-10-31T07:16:06;2.77;;;1.90;;
4232;SDS011;2130;48.472;11.934;2022-10-31T07:18:35;2.03;;;1.63;;
4232;SDS011;2130;48.472;11.934;2022-10-31T07:21:04;1.83;;;1.63;;
4232;SDS011;2130;48.472;11.934;2022-10-31T07:23:32;1.80;;;1.70;;
4232;SDS011;2130;48.472;11.934;2022-10-31T07:26:37;2.20;;;1.70;;
4232;SDS011;2130;48.472;11.934;2022-10-31T07:29:05;2.00;;;1.80;;
4232;SDS011;2130;48.472;11.934;2022-10-31T07:31:33;2.03;;;1.70;;
4232;SDS011;2130;48.472;11.934;2022-10-31T07:34:08;1.70;;;1.60;;
4232;SDS011;2130;48.472;11.934;2022-10-31T07:36:36;2.47;;;1.90;;
4232;SDS011;2130;48.472;11.934;2022-10-31T07:39:04;1.47;;;1.37;;
4232;SDS011;2130;48.472;11.934;2022-10-31T07:41:34;2.53;;;2.30;;
4232;SDS011;2130;48.472;11.934;2022-10-31T07:44:03;3.07;;;1.70;;
4232;SDS011;2130;48.472;11.934;2022-10-31T07:46:50;2.27;;;2.07;;
4232;SDS011;2130;48.472;11.934;2022-10-31T07:49:56;3.10;;;1.80;;
4232;SDS011;2130;48.472;11.934;2022-10-31T07:52:43;3.03;;;1.60;;
4232;SDS011;2130;48.472;11.934;2022-10-31T07:55:43;2.20;;;1.80;;
4232;SDS011;2130;48.472;11.934;2022-10-31T07:58:13;2.87;;;2.00;;
4232;SDS011;2130;48.472;11.934;2022-10-31T08:00:43;2.37;;;1.67;;
4232;SDS011;2130;48.472;11.934;2022-10-31T08:03:17;2.40;;;1.80;;
4232;SDS011;2130;48.472;11.934;2022-10-31T08:06:05;2.30;;;1.63;;
4232;SDS011;2130;48.472;11.934;2022-10-31T08:08:52;1.70;;;1.60;;
4232;SDS011;2130;48.472;11.934;2022-10-31T08:11:21;2.03;;;1.70;;
4232;SDS011;2130;48.472;11.934;2022-10-31T08:13:49;2.10;;;1.90;;
4232;SDS011;2130;48.472;11.934;2022-10-31T08:16:19;3.20;;;2.30;;
4232;SDS011;2130;48.472;11.934;2022-10-31T08:18:55;2.93;;;1.77;;
4232;SDS011;2130;48.472;11.934;2022-10-31T08:21:23;1.73;;;1.53;;
4232;SDS011;2130;48.472;11.934;2022-10-31T08:23:51;2.23;;;1.77;;
4232;SDS011;2130;48.472;11.934;2022-10-31T08:26:22;2.90;;;2.20;;
4232;SDS011;2130;48.472;11.934;2022-10-31T08:28:53;2.80;;;2.17;;
4232;SDS011;2130;48.472;11.934;2022-10-31T08:31:26;2.93;;;2.53;;
4232;SDS011;2130;48.472;11.934;2022-10-31T08:34:18;2.70;;;2.20;;
4232;SDS011;2130;48.472;11.934;2022-10-31T08:37:05;4.77;;;2.00;;
4232;SDS011;2130;48.472;11.934;2022-10-31T08:39:39;2.37;;;2.07;;
4232;SDS011;2130;48.472;11.934;2022-10-31T08:42:07;2.27;;;1.90;;
4232;SDS011;2130;48.472;11.934;2022-10-31T08:44:35;3.47;;;2.53;;
4232;SDS011;2130;48.472;11.934;2022-10-31T08:47:04;2.10;;;1.80;;
4232;SDS011;2130;48.472;11.934;2022-10-31T08:49:33;2.97;;;1.80;;
4232;SDS011;2130;48.472;11.934;2022-10-31T08:52:02;2.27;;;1.80;;
4232;SDS011;2130;48.472;11.934;2022-10-31T08:54:35;2.30;;;2.10;;
4232;SDS011;2130;48.472;11.934;2022-10-31T08:57:23;2.30;;;2.10;;
4232;SDS011;2130;48.472;11.934;2022-10-31T08:59:52;2.77;;;2.47;;
4232;SDS011;2130;48.472;11.934;2022-10-31T09:02:40;2.47;;;2.00;;
4232;SDS011;2130;48.472;11.934;2022-10-31T09:05:08;2.40;;;2.10;;
4232;SDS011;2130;48.472;11.934;2022-10-31T09:07:36;2.70;;;2.13;;
4232;SDS011;2130;48.472;11.934;2022-10-31T09:10:05;3.97;;;2.43;;
4232;SDS011;2130;48.472;11.934;2022-10-31T09:12:35;2.60;;;2.30;;
4232;SDS011;2130;48.472;11.934;2022-10-31T09:15:22;3.17;;;2.20;;
4232;SDS011;2130;48.472;11.934;2022-10-31T09:18:05;3.13;;;2.30;;
4232;SDS011;2130;48.472;11.934;2022-10-31T09:20:44;3.80;;;2.53;;
4232;SDS011;2130;48.472;11.934;2022-10-31T09:23:13;2.37;;;2.17;;
4232;SDS011;2130;48.472;11.934;2022-10-31T09:25:43;3.77;;;2.17;;
4232;SDS011;2130;48.472;11.934;2022-10-31T09:28:28;3.53;;;2.53;;
4232;SDS011;2130;48.472;11.934;2022-10-31T09:31:00;3.33;;;2.33;;
4232;SDS011;2130;48.472;11.934;2022-10-31T09:33:47;2.50;;;2.10;;
4232;SDS011;2130;48.472;11.934;2022-10-31T09:36:38;5.07;;;2.20;;
4232;SDS011;2130;48.472;11.934;2022-10-31T09:39:13;2.43;;;2.13;;
4232;SDS011;2130;48.472;11.934;2022-10-31T09:41:48;3.87;;;2.63;;
4232;SDS011;2130;48.472;11.934;2022-10-31T09:44:30;2.50;;;2.00;;
4232;SDS011;2130;48.472;11.934;2022-10-31T09:47:12;3.50;;;2.30;;
4232;SDS011;2130;48.472;11.934;2022-10-31T09:50:02;3.77;;;2.50;;
4232;SDS011;2130;48.472;11.934;2022-10-31T09:52:39;2.80;;;2.30;;
4232;SDS011;2130;48.472;11.934;2022-10-31T09:55:13;2.30;;;2.10;;
4232;SDS011;2130;48.472;11.934;2022-10-31T09:57:42;4.63;;;2.90;;
4232;SDS011;2130;48.472;11.934;2022-10-31T10:00:14;4.43;;;2.67;;
4232;SDS011;2130;48.472;11.934;2022-10-31T10:02:46;2.50;;;2.30;;
4232;SDS011;2130;48.472;11.934;2022-10-31T10:05:18;4.47;;;2.60;;
4232;SDS011;2130;48.472;11.934;2022-10-31T10:07:54;3.63;;;2.43;;
4232;SDS011;2130;48.472;11.934;2022-10-31T10:10:53;3.17;;;2.17;;
4232;SDS011;2130;48.472;11.934;2022-10-31T10:13:49;3.37;;;2.33;;
4232;SDS011;2130;48.472;11.934;2022-10-31T10:16:31;3.20;;;2.47;;
4232;SDS011;2130;48.472;11.934;2022-10-31T10:19:12;2.77;;;2.37;;
4232;SDS011;2130;48.472;11.934;2022-10-31T10:21:50;3.17;;;2.70;;
4232;SDS011;2130;48.472;11.934;2022-10-31T10:24:30;3.77;;;2.43;;
4232;SDS011;2130;48.472;11.934;2022-10-31T10:27:16;3.43;;;2.50;;
4232;SDS011;2130;48.472;11.934;2022-10-31T10:29:50;3.10;;;2.80;;
4232;SDS011;2130;48.472;11.934;2022-10-31T10:32:20;2.63;;;2.17;;
4232;SDS011;2130;48.472;11.934;2022-10-31T10:34:50;3.07;;;2.63;;
4232;SDS011;2130;48.472;11.934;2022-10-31T10:37:34;2.63;;;2.30;;
4232;SDS011;2130;48.472;11.934;2022-10-31T10:40:06;3.40;;;2.90;;
4232;SDS011;2130;48.472;11.934;2022-10-31T10:42:36;3.50;;;2.80;;
4232;SDS011;2130;48.472;11.934;2022-10-31T10:45:22;2.87;;;2.57;;
4232;SDS011;2130;48.472;11.934;2022-10-31T10:48:11;5.80;;;2.57;;
4232;SDS011;2130;48.472;11.934;2022-10-31T10:50:44;2.37;;;2.17;;
4232;SDS011;2130;48.472;11.934;2022-10-31T10:53:24;7.43;;;2.87;;
4232;SDS011;2130;48.472;11.934;2022-10-31T10:56:08;6.43;;;2.10;;
4232;SDS011;2130;48.472;11.934;2022-10-31T10:58:39;4.30;;;2.70;;
4232;SDS011;2130;48.472;11.934;2022-10-31T11:01:10;3.50;;;2.83;;
4232;SDS011;2130;48.472;11.934;2022-10-31T11:04:34;4.53;;;2.30;;
4232;SDS011;2130;48.472;11.934;2022-10-31T11:07:04;4.03;;;2.87;;
4232;SDS011;2130;48.472;11.934;2022-10-31T11:09:36;5.10;;;2.57;;
4232;SDS011;2130;48.472;11.934;2022-10-31T11:12:06;7.40;;;2.77;;
4232;SDS011;2130;48.472;11.934;2022-10-31T11:14:37;3.30;;;2.70;;
4232;SDS011;2130;48.472;11.934;2022-10-31T11:17:17;3.10;;;2.63;;
4232;SDS011;2130;48.472;11.934;2022-10-31T11:19:48;5.80;;;2.60;;
4232;SDS011;2130;48.472;11.934;2022-10-31T11:22:27;16.70;;;2.67;;
4232;SDS011;2130;48.472;11.934;2022-10-31T11:24:56;4.67;;;2.87;;
4232;SDS011;2130;48.472;11.934;2022-10-31T11:27:25;6.33;;;2.70;;
4232;SDS011;2130;48.472;11.934;2022-10-31T11:30:03;5.07;;;3.03;;
4232;SDS011;2130;48.472;11.934;2022-10-31T11:32:32;5.27;;;2.93;;
4232;SDS011;2130;48.472;11.934;2022-10-31T11:35:01;3.67;;;2.83;;
4232;SDS011;2130;48.472;11.934;2022-10-31T11:37:30;2.63;;;2.43;;
4232;SDS011;2130;48.472;11.934;2022-10-31T11:40:04;10.03;;;2.70;;
4232;SDS011;2130;48.472;11.934;2022-10-31T11:42:36;4.10;;;2.90;;
4232;SDS011;2130;48.472;11.934;2022-10-31T11:45:07;4.43;;;3.10;;
4232;SDS011;2130;48.472;11.934;2022-10-31T11:47:42;3.67;;;3.13;;
4232;SDS011;2130;48.472;11.934;2022-10-31T11:50:15;2.73;;;2.40;;
4232;SDS011;2130;48.472;11.934;2022-10-31T11:52:48;4.47;;;2.90;;
4232;SDS011;2130;48.472;11.934;2022-10-31T11:55:29;3.90;;;2.90;;
4232;SDS011;2130;48.472;11.934;2022-10-31T11:57:59;5.30;;;2.90;;
4232;SDS011;2130;48.472;11.934;2022-10-31T12:00:28;6.33;;;2.80;;
4232;SDS011;2130;48.472;11.934;2022-10-31T12:03:10;3.90;;;3.50;;
4232;SDS011;2130;48.472;11.934;2022-10-31T12:05:42;5.13;;;2.87;;
4232;SDS011;2130;48.472;11.934;2022-10-31T12:08:12;4.57;;;3.20;;
4232;SDS011;2130;48.472;11.934;2022-10-31T12:10:44;4.13;;;2.70;;
4232;SDS011;2130;48.472;11.934;2022-10-31T12:13:24;4.60;;;3.07;;
4232;SDS011;2130;48.472;11.934;2022-10-31T12:16:01;3.30;;;2.67;;
4232;SDS011;2130;48.472;11.934;2022-10-31T12:18:38;4.63;;;2.97;;
4232;SDS011;2130;48.472;11.934;2022-10-31T12:21:20;3.33;;;2.73;;
4232;SDS011;2130;48.472;11.934;2022-10-31T12:23:56;3.07;;;2.47;;
4232;SDS011;2130;48.472;11.934;2022-10-31T12:26:34;4.00;;;2.50;;
4232;SDS011;2130;48.472;11.934;2022-10-31T12:29:15;4.37;;;2.63;;
4232;SDS011;2130;48.472;11.934;2022-10-31T12:31:52;4.37;;;2.80;;
4232;SDS011;2130;48.472;11.934;2022-10-31T12:34:37;5.40;;;2.83;;
4232;SDS011;2130;48.472;11.934;2022-10-31T12:37:17;3.67;;;2.87;;
4232;SDS011;2130;48.472;11.934;2022-10-31T12:39:53;5.00;;;2.57;;
4232;SDS011;2130;48.472;11.934;2022-10-31T12:42:38;4.33;;;2.80;;
4232;SDS011;2130;48.472;11.934;2022-10-31T12:45:26;4.13;;;2.23;;
4232;SDS011;2130;48.472;11.934;2022-10-31T12:48:08;4.40;;;2.70;;
4232;SDS011;2130;48.472;11.934;2022-10-31T12:50:47;3.07;;;2.30;;
4232;SDS011;2130;48.472;11.934;2022-10-31T12:53:23;3.30;;;2.40;;
4232;SDS011;2130;48.472;11.934;2022-10-31T12:56:01;5.17;;;2.53;;
4232;SDS011;2130;48.472;11.934;2022-10-31T12:58:38;8.10;;;3.47;;
4232;SDS011;2130;48.472;11.934;2022-10-31T13:01:12;2.87;;;2.30;;
4232;SDS011;2130;48.472;11.934;2022-10-31T13:03:45;4.40;;;3.00;;
4232;SDS011;2130;48.472;11.934;2022-10-31T13:06:18;7.30;;;2.20;;
4232;SDS011;2130;48.472;11.934;2022-10-31T13:08:49;2.90;;;2.57;;
4232;SDS011;2130;48.472;11.934;2022-10-31T13:11:19;2.87;;;2.27;;
4232;SDS011;2130;48.472;11.934;2022-10-31T13:13:53;7.50;;;2.40;;
4232;SDS011;2130;48.472;11.934;2022-10-31T13:16:26;2.83;;;2.43;;
4232;SDS011;2130;48.472;11.934;2022-10-31T13:18:58;3.43;;;2.67;;
4232;SDS011;2130;48.472;11.934;2022-10-31T13:21:30;2.83;;;2.47;;
4232;SDS011;2130;48.472;11.934;2022-10-31T13:24:04;4.50;;;2.60;;
4232;SDS011;2130;48.472;11.934;2022-10-31T13:26:37;2.53;;;2.27;;
4232;SDS011;2130;48.472;11.934;2022-10-31T13:29:11;2.83;;;2.50;;
4232;SDS011;2130;48.472;11.934;2022-10-31T13:31:44;2.90;;;2.47;;
4232;SDS011;2130;48.472;11.934;2022-10-31T13:34:18;3.17;;;2.60;;
4232;SDS011;2130;48.472;11.934;2022-10-31T13:36:52;3.03;;;2.50;;
4232;SDS011;2130;48.472;11.934;2022-10-31T13:39:26;2.70;;;2.27;;
4232;SDS011;2130;48.472;11.934;2022-10-31T13:42:01;3.30;;;2.13;;
4232;SDS011;2130;48.472;11.934;2022-10-31T13:44:34;3.47;;;2.37;;
4232;SDS011;2130;48.472;11.934;2022-10-31T13:47:19;4.03;;;2.63;;
4232;SDS011;2130;48.472;11.934;2022-10-31T13:49:49;3.60;;;2.47;;
4232;SDS011;2130;48.472;11.934;2022-10-31T13:52:24;4.20;;;2.57;;
4232;SDS011;2130;48.472;11.934;2022-10-31T13:54:53;3.97;;;2.60;;
4232;SDS011;2130;48.472;11.934;2022-10-31T13:57:29;3.77;;;2.50;;
4232;SDS011;2130;48.472;11.934;2022-10-31T14:00:03;3.00;;;2.43;;
4232;SDS011;2130;48.472;11.934;2022-10-31T14:02:44;4.30;;;2.50;;
4232;SDS011;2130;48.472;11.934;2022-10-31T14:05:19;3.27;;;2.40;;
4232;SDS011;2130;48.472;11.934;2022-10-31T14:07:50;2.93;;;2.60;;
4232;SDS011;2130;48.472;11.934;2022-10-31T14:10:20;4.70;;;2.77;;
4232;SDS011;2130;48.472;11.934;2022-10-31T14:12:50;2.50;;;1.77;;
4232;SDS011;2130;48.472;11.934;2022-10-31T14:15:20;4.00;;;2.50;;
4232;SDS011;2130;48.472;11.934;2022-10-31T14:17:50;4.87;;;2.47;;
4232;SDS011;2130;48.472;11.934;2022-10-31T14:20:24;2.77;;;2.30;;
4232;SDS011;2130;48.472;11.934;2022-10-31T14:31:55;2.60;;;2.40;;
4232;SDS011;2130;48.472;11.934;2022-10-31T14:34:26;2.63;;;2.20;;
4232;SDS011;2130;48.472;11.934;2022-10-31T14:39:55;3.83;;;2.20;;
4232;SDS011;2130;48.472;11.934;2022-10-31T14:42:32;3.77;;;2.33;;
4232;SDS011;2130;48.472;11.934;2022-10-31T14:45:15;6.33;;;2.40;;
4232;SDS011;2130;48.472;11.934;2022-10-31T14:47:55;2.90;;;2.30;;
4232;SDS011;2130;48.472;11.934;2022-10-31T14:50:39;3.47;;;2.77;;
4232;SDS011;2130;48.472;11.934;2022-10-31T14:53:11;2.97;;;2.30;;
4232;SDS011;2130;48.472;11.934;2022-10-31T14:55:43;2.97;;;2.20;;
4232;SDS011;2130;48.472;11.934;2022-10-31T14:58:15;6.27;;;4.93;;
4232;SDS011;2130;48.472;11.934;2022-10-31T15:00:47;3.93;;;2.73;;
4232;SDS011;2130;48.472;11.934;2022-10-31T15:03:18;3.10;;;2.53;;
4232;SDS011;2130;48.472;11.934;2022-10-31T15:05:51;3.50;;;2.47;;
4232;SDS011;2130;48.472;11.934;2022-10-31T15:11:22;3.70;;;2.80;;
4232;SDS011;2130;48.472;11.934;2022-10-31T15:13:52;3.83;;;2.57;;
4232;SDS011;2130;48.472;11.934;2022-10-31T15:16:21;4.30;;;3.00;;
4232;SDS011;2130;48.472;11.934;2022-10-31T15:18:55;3.67;;;2.40;;
4232;SDS011;2130;48.472;11.934;2022-10-31T15:21:25;4.70;;;3.00;;
4232;SDS011;2130;48.472;11.934;2022-10-31T15:23:55;3.20;;;2.63;;
4232;SDS011;2130;48.472;11.934;2022-10-31T15:26:26;3.67;;;3.00;;
4232;SDS011;2130;48.472;11.934;2022-10-31T15:28:57;2.70;;;2.40;;
4232;SDS011;2130;48.472;11.934;2022-10-31T15:31:26;3.87;;;3.10;;
4232;SDS011;2130;48.472;11.934;2022-10-31T15:33:56;4.20;;;2.90;;
4232;SDS011;2130;48.472;11.934;2022-10-31T15:36:27;5.70;;;3.00;;
4232;SDS011;2130;48.472;11.934;2022-10-31T15:39:01;3.80;;;2.80;;
4232;SDS011;2130;48.472;11.934;2022-10-31T15:41:30;3.80;;;3.00;;
4232;SDS011;2130;48.472;11.934;2022-10-31T15:44:01;4.30;;;3.23;;
4232;SDS011;2130;48.472;11.934;2022-10-31T15:46:32;5.00;;;2.90;;
4232;SDS011;2130;48.472;11.934;2022-10-31T15:49:02;3.70;;;3.00;;
4232;SDS011;2130;48.472;11.934;2022-10-31T15:51:31;5.53;;;2.73;;
4232;SDS011;2130;48.472;11.934;2022-10-31T15:54:01;2.93;;;2.60;;
4232;SDS011;2130;48.472;11.934;2022-10-31T15:56:30;6.37;;;2.77;;
4232;SDS011;2130;48.472;11.934;2022-10-31T15:58:59;7.30;;;2.63;;
4232;SDS011;2130;48.472;11.934;2022-10-31T16:01:29;3.00;;;2.20;;